KCOS

City of Colorado Springs Municipal Airport

Colorado Springs, Colorado, USA
METAR KCOS 140354Z 35005KT 10SM CLR 00/M06 A3043 RMK AO2 SLP331 T00001056 $
Observed Flight Rules
Nov-14 @ 03:54 UTC (60 minutes ago) Visual Flight Rules
Wind Visibility Clouds
350° at 5 knots 10 miles
  • Clear skies
Temperatures Readings
Current 0°C / 32°F
Dewpoint -6°C / 21°F
Humidity 64%
Altimeter 30.43" Hg
Pressure 1033.1 hPa
Elevation 1856
METAR KCOS 140354Z 35005KT 10SM CLR 00/M06 A3043 RMK AO2 SLP331 T00001056 $
Observed Flight Rules
Nov-14 @ 03:54 UTC
(60 minutes ago)
VFR
Wind Visibility
350° at 5 knots 10 miles
Clouds
  • Clear skies
Temperature Dewpoint
0°C / 32°F -6°C / 21°F
Humidity Altimeter Pressure
64% 30.43" Hg 1033.1 hPa